createdAt,value
2018-11-02T00:00:29.134Z,5.34
2018-11-02T00:01:29.103Z,5.37
2018-11-02T00:02:29.155Z,5.39
2018-11-02T00:03:29.461Z,5.42
2018-11-02T00:04:29.885Z,5.45
2018-11-02T00:05:30.202Z,5.49
2018-11-02T00:06:30.612Z,5.53
2018-11-02T00:07:30.713Z,5.57
2018-11-02T00:08:31.044Z,5.59
2018-11-02T00:09:31.775Z,5.63
2018-11-02T00:10:31.563Z,5.68
2018-11-02T00:11:31.873Z,5.72
2018-11-02T00:12:32.352Z,5.76
2018-11-02T00:13:32.619Z,5.80
2018-11-02T00:14:32.932Z,5.86
2018-11-02T00:15:34.326Z,5.89
2018-11-02T00:16:34.539Z,5.91
2018-11-02T00:17:34.648Z,5.96
2018-11-02T00:18:35.074Z,5.98
2018-11-02T00:19:35.491Z,6.01
2018-11-02T00:20:35.895Z,6.04
2018-11-02T00:21:36.031Z,6.07
2018-11-02T00:22:36.307Z,6.10
2018-11-02T00:23:36.320Z,6.13
2018-11-02T00:24:36.665Z,6.14
2018-11-02T00:25:36.750Z,6.17
2018-11-02T00:26:36.762Z,6.21
2018-11-02T00:27:36.853Z,6.24
2018-11-02T00:28:36.963Z,6.26
2018-11-02T00:29:36.420Z,6.27
2018-11-02T00:30:37.087Z,6.31
2018-11-02T00:31:36.967Z,6.33
2018-11-02T00:32:37.146Z,6.35
2018-11-02T00:33:37.450Z,6.38
2018-11-02T00:34:37.538Z,6.42
2018-11-02T00:35:37.645Z,6.45
2018-11-02T00:36:37.859Z,6.49
2018-11-02T00:37:37.923Z,6.51
2018-11-02T00:38:38.122Z,6.57
2018-11-02T00:39:38.276Z,6.60
2018-11-02T00:40:38.475Z,6.65
2018-11-02T00:41:38.653Z,6.69
2018-11-02T00:42:39.020Z,6.74
2018-11-02T00:43:38.840Z,6.78
2018-11-02T00:44:39.197Z,6.80
2018-11-02T00:45:39.524Z,6.83
2018-11-02T00:46:39.882Z,6.86
2018-11-02T00:47:40.143Z,6.88
2018-11-02T00:48:40.716Z,6.93
2018-11-02T00:49:41.020Z,6.97
2018-11-02T00:50:41.310Z,7.02
2018-11-02T00:51:41.876Z,7.06
2018-11-02T00:52:41.621Z,7.09
2018-11-02T00:53:42.023Z,7.13
2018-11-02T00:54:42.451Z,7.17
2018-11-02T00:55:42.816Z,7.18
2018-11-02T00:56:43.121Z,7.22
2018-11-02T00:57:43.436Z,7.26
2018-11-02T00:58:43.743Z,7.30
2018-11-02T00:59:44.051Z,7.35
2018-11-02T01:00:44.367Z,7.38
2018-11-02T01:01:44.641Z,7.41
2018-11-02T01:02:45.008Z,7.43
2018-11-02T01:03:45.298Z,7.47
2018-11-02T01:04:45.627Z,7.51
2018-11-02T01:05:45.945Z,7.54
2018-11-02T01:06:46.258Z,7.58
2018-11-02T01:07:46.624Z,7.64
2018-11-02T01:08:47.062Z,7.68
2018-11-02T01:09:47.034Z,7.73
2018-11-02T01:10:47.452Z,7.75
2018-11-02T01:11:47.827Z,7.79
2018-11-02T01:12:48.626Z,7.82
2018-11-02T01:13:49.247Z,7.86
2018-11-02T01:14:49.560Z,7.91
2018-11-02T01:15:49.479Z,7.95
2018-11-02T01:16:50.332Z,7.98
2018-11-02T01:18:50.823Z,8.03
2018-11-02T01:19:50.823Z,8.11
2018-11-02T01:20:50.641Z,8.14
2018-11-02T01:21:50.894Z,8.17
2018-11-02T01:22:51.055Z,8.19
2018-11-02T01:23:51.465Z,8.22
2018-11-02T01:24:51.475Z,8.25
2018-11-02T01:25:51.498Z,8.25
2018-11-02T01:26:51.789Z,8.27
2018-11-02T01:27:52.564Z,8.26
2018-11-02T01:28:52.005Z,8.25
2018-11-02T01:29:52.273Z,8.23
2018-11-02T01:30:52.386Z,8.24
2018-11-02T01:31:52.593Z,8.24
2018-11-02T01:32:53.051Z,8.24
2018-11-02T01:33:53.136Z,8.21
2018-11-02T01:34:53.275Z,8.19
2018-11-02T01:35:53.542Z,8.19
2018-11-02T01:36:53.760Z,8.17
2018-11-02T01:37:53.966Z,8.17
2018-11-02T01:38:54.025Z,8.15
2018-11-02T01:39:54.200Z,8.17
2018-11-02T01:40:54.124Z,8.18
2018-11-02T01:41:54.309Z,8.20
2018-11-02T01:42:54.167Z,8.23
2018-11-02T01:43:54.628Z,8.26
2018-11-02T01:44:55.038Z,8.29
2018-11-02T01:45:55.519Z,8.30
2018-11-02T01:46:55.793Z,8.30
2018-11-02T01:47:56.144Z,8.31
2018-11-02T01:48:56.447Z,8.32
2018-11-02T01:49:56.825Z,8.37
2018-11-02T01:50:57.195Z,8.40
2018-11-02T01:51:57.522Z,8.43
2018-11-02T01:52:57.919Z,8.44
2018-11-02T01:53:58.238Z,8.49
2018-11-02T01:54:58.548Z,8.53
2018-11-02T01:55:58.864Z,8.56
2018-11-02T01:56:59.217Z,8.60
2018-11-02T01:57:59.627Z,8.67
2018-11-02T01:58:59.912Z,8.72
2018-11-02T02:00:00.281Z,8.80
2018-11-02T02:01:00.585Z,8.92
2018-11-02T02:02:01.245Z,8.93
2018-11-02T02:03:01.676Z,8.94
2018-11-02T02:04:01.795Z,8.97
2018-11-02T02:05:02.046Z,8.96
2018-11-02T02:06:02.751Z,8.96
2018-11-02T02:07:02.566Z,8.99
2018-11-02T02:08:03.745Z,9.04
2018-11-02T02:09:04.561Z,9.10
2018-11-02T02:10:05.181Z,9.16
2018-11-02T02:11:05.597Z,9.22
2018-11-02T02:12:06.129Z,9.21
2018-11-02T02:13:06.341Z,9.21
2018-11-02T02:14:06.335Z,9.21
2018-11-02T02:15:07.033Z,9.21
2018-11-02T02:16:06.852Z,9.21
2018-11-02T02:17:06.967Z,9.22
2018-11-02T02:18:07.157Z,9.22
2018-11-02T02:19:07.171Z,9.26
2018-11-02T02:20:07.178Z,9.27
2018-11-02T02:21:07.346Z,9.29
2018-11-02T02:22:07.539Z,9.30
2018-11-02T02:23:07.766Z,9.31
2018-11-02T02:24:07.817Z,9.34
2018-11-02T02:25:08.008Z,9.37
2018-11-02T02:26:07.823Z,9.39
2018-11-02T02:27:08.151Z,9.42
2018-11-02T02:28:08.457Z,9.46
2018-11-02T02:29:09.068Z,9.49
2018-11-02T02:30:09.573Z,9.51
2018-11-02T02:31:09.849Z,9.59
2018-11-02T02:32:09.690Z,9.62
2018-11-02T02:33:10.063Z,9.65
2018-11-02T02:34:10.351Z,9.65
2018-11-02T02:35:10.843Z,9.65
2018-11-02T02:36:11.119Z,9.62
2018-11-02T02:37:11.630Z,9.63
2018-11-02T02:38:11.959Z,9.61
2018-11-02T02:39:12.355Z,9.60
2018-11-02T02:40:12.779Z,9.55
2018-11-02T02:41:13.148Z,9.53
2018-11-02T02:42:13.503Z,9.48
2018-11-02T02:43:13.827Z,9.45
2018-11-02T02:44:14.281Z,9.41
2018-11-02T02:45:15.105Z,9.37
2018-11-02T02:46:14.964Z,9.33
2018-11-02T02:47:15.276Z,9.27
2018-11-02T02:48:15.604Z,9.22
2018-11-02T02:49:15.901Z,9.14
2018-11-02T02:50:16.793Z,9.06
2018-11-02T02:51:16.635Z,8.98
2018-11-02T02:52:17.088Z,8.91
2018-11-02T02:53:17.169Z,8.83
2018-11-02T02:54:17.468Z,8.79
2018-11-02T02:55:18.073Z,8.71
2018-11-02T02:56:18.180Z,8.65
2018-11-02T02:57:18.294Z,8.59
2018-11-02T02:58:18.607Z,8.54
2018-11-02T02:59:19.104Z,8.48
2018-11-02T03:00:19.841Z,8.43
2018-11-02T03:01:19.949Z,8.37
2018-11-02T03:02:20.059Z,8.32
2018-11-02T03:03:20.284Z,8.29
2018-11-02T03:04:20.689Z,8.25
2018-11-02T03:05:20.961Z,8.23
2018-11-02T03:06:21.213Z,8.19
2018-11-02T03:07:21.321Z,8.19
2018-11-02T03:08:21.542Z,8.18
2018-11-02T03:09:21.744Z,8.15
2018-11-02T03:10:21.938Z,8.14
2018-11-02T03:11:21.854Z,8.11
2018-11-02T03:12:21.853Z,8.08
2018-11-02T03:13:22.383Z,8.05
2018-11-02T03:14:22.235Z,8.00
2018-11-02T03:15:22.485Z,7.96
2018-11-02T03:16:22.680Z,7.91
2018-11-02T03:17:22.780Z,7.87
2018-11-02T03:18:22.914Z,7.82
2018-11-02T03:19:23.091Z,7.78
2018-11-02T03:20:23.249Z,7.73
2018-11-02T03:21:23.444Z,7.68
2018-11-02T03:22:23.837Z,7.66
2018-11-02T03:23:23.959Z,7.66
2018-11-02T03:24:23.943Z,7.62
2018-11-02T03:25:24.318Z,7.59
2018-11-02T03:26:24.638Z,7.55
2018-11-02T03:27:25.089Z,7.53
2018-11-02T03:28:25.186Z,7.51
2018-11-02T03:29:25.585Z,7.49
2018-11-02T03:30:25.896Z,7.48
2018-11-02T03:31:26.211Z,7.47
2018-11-02T03:32:26.651Z,7.44
2018-11-02T03:33:26.953Z,7.41
2018-11-02T03:34:27.291Z,7.40
2018-11-02T03:35:27.288Z,7.38
2018-11-02T03:36:27.644Z,7.37
2018-11-02T03:37:28.084Z,7.35
2018-11-02T03:38:28.481Z,7.32
2018-11-02T03:39:28.967Z,7.32
2018-11-02T03:40:29.324Z,7.31
2018-11-02T03:41:29.713Z,7.28
2018-11-02T03:42:30.138Z,7.27
2018-11-02T03:43:30.550Z,7.26
2018-11-02T03:44:30.994Z,7.25
2018-11-02T03:45:31.293Z,7.25
2018-11-02T03:46:31.723Z,7.23
2018-11-02T03:47:32.104Z,7.22
2018-11-02T03:48:32.642Z,7.22
2018-11-02T03:49:33.044Z,7.21
2018-11-02T03:50:33.114Z,7.19
2018-11-02T03:51:32.986Z,7.19
2018-11-02T03:52:34.002Z,7.18
2018-11-02T03:53:34.582Z,7.18
2018-11-02T03:54:34.995Z,7.16
2018-11-02T03:55:35.299Z,7.15
2018-11-02T03:56:35.672Z,7.11
2018-11-02T03:57:36.036Z,7.10
2018-11-02T03:58:36.149Z,7.08
2018-11-02T03:59:36.453Z,7.08
2018-11-02T04:00:36.666Z,7.06
2018-11-02T04:01:36.774Z,7.06
2018-11-02T04:02:36.892Z,7.04
2018-11-02T04:03:37.178Z,7.02
2018-11-02T04:04:37.174Z,7.01
2018-11-02T04:05:37.493Z,6.99
2018-11-02T04:06:37.581Z,6.98
2018-11-02T04:07:37.703Z,6.96
2018-11-02T04:08:37.952Z,6.98
2018-11-02T04:09:38.225Z,7.00
2018-11-02T04:10:38.359Z,7.00
2018-11-02T04:11:38.879Z,7.02
2018-11-02T04:12:38.664Z,7.04
2018-11-02T04:13:38.881Z,7.06
2018-11-02T04:14:39.031Z,7.07
2018-11-02T04:15:39.055Z,7.07
2018-11-02T04:16:39.253Z,7.06
2018-11-02T04:17:39.213Z,7.05
2018-11-02T04:18:39.576Z,7.02
2018-11-02T04:19:40.040Z,7.00
2018-11-02T04:20:40.458Z,6.99
2018-11-02T04:21:40.822Z,6.97
2018-11-02T04:22:41.140Z,6.96
2018-11-02T04:23:41.451Z,6.95
2018-11-02T04:24:41.801Z,6.90
2018-11-02T04:25:42.182Z,6.89
2018-11-02T04:26:42.863Z,6.89
2018-11-02T04:27:42.711Z,6.89
2018-11-02T04:28:43.119Z,6.90
2018-11-02T04:29:43.671Z,6.91
2018-11-02T04:30:43.594Z,6.92
2018-11-02T04:31:43.983Z,6.95
2018-11-02T04:32:44.300Z,6.96
2018-11-02T04:33:44.689Z,6.95
2018-11-02T04:34:45.131Z,6.97
2018-11-02T04:35:45.529Z,6.99
2018-11-02T04:36:45.942Z,7.00
2018-11-02T04:37:46.177Z,7.01
2018-11-02T04:38:46.460Z,7.01
2018-11-02T04:39:46.786Z,7.01
2018-11-02T04:40:47.046Z,7.02
2018-11-02T04:41:47.346Z,7.03
2018-11-02T04:42:47.647Z,7.06
2018-11-02T04:44:48.404Z,7.09
2018-11-02T04:45:49.242Z,7.15
2018-11-02T04:46:49.352Z,7.20
2018-11-02T04:47:49.473Z,7.26
2018-11-02T04:48:49.982Z,7.30
2018-11-02T04:49:49.525Z,7.35
2018-11-02T04:50:50.029Z,7.37
2018-11-02T04:51:50.208Z,7.39
2018-11-02T04:52:50.626Z,7.40
2018-11-02T04:53:51.125Z,7.41
2018-11-02T04:54:51.257Z,7.41
2018-11-02T04:55:51.358Z,7.39
2018-11-02T04:56:51.700Z,7.38
2018-11-02T04:57:51.881Z,7.41
2018-11-02T04:58:51.990Z,7.40
2018-11-02T04:59:52.770Z,7.42
2018-11-02T05:00:52.280Z,7.41
2018-11-02T05:01:52.183Z,7.41
2018-11-02T05:03:52.603Z,7.38
2018-11-02T05:04:52.774Z,7.42
2018-11-02T05:05:52.883Z,7.46
2018-11-02T05:06:52.992Z,7.49
2018-11-02T05:07:53.284Z,7.52
2018-11-02T05:08:53.649Z,7.53
2018-11-02T05:09:54.114Z,7.55
2018-11-02T05:10:54.285Z,7.52
2018-11-02T05:11:54.427Z,7.51
2018-11-02T05:12:54.391Z,7.50
2018-11-02T05:13:54.789Z,7.49
2018-11-02T05:14:55.576Z,7.49
2018-11-02T05:15:55.397Z,7.49
2018-11-02T05:16:55.698Z,7.50
2018-11-02T05:17:56.401Z,7.48
2018-11-02T05:18:56.376Z,7.48
2018-11-02T05:19:56.813Z,7.50
2018-11-02T05:20:57.150Z,7.49
2018-11-02T05:21:57.527Z,7.47
2018-11-02T05:22:57.946Z,7.45
2018-11-02T05:23:58.325Z,7.46
2018-11-02T05:24:58.646Z,7.45
2018-11-02T05:25:59.093Z,7.44
2018-11-02T05:26:59.508Z,7.43
2018-11-02T05:28:00.010Z,7.41
2018-11-02T05:29:00.417Z,7.37
2018-11-02T05:30:00.836Z,7.33
2018-11-02T05:31:01.435Z,7.28
2018-11-02T05:32:01.546Z,7.26
2018-11-02T05:33:01.985Z,7.25
2018-11-02T05:34:02.871Z,7.23
2018-11-02T05:35:02.708Z,7.24
2018-11-02T05:36:03.507Z,7.24
2018-11-02T05:37:02.988Z,7.21
2018-11-02T05:38:04.044Z,7.19
2018-11-02T05:39:04.355Z,7.16
2018-11-02T05:40:04.552Z,7.12
2018-11-02T05:41:05.069Z,7.06
2018-11-02T05:42:05.390Z,7.04
2018-11-02T05:43:05.591Z,7.02
2018-11-02T05:44:05.810Z,7.04
2018-11-02T05:45:06.251Z,7.03
2018-11-02T05:46:06.441Z,7.03
2018-11-02T05:47:06.666Z,7.01
2018-11-02T05:48:06.766Z,7.00
2018-11-02T05:49:06.851Z,6.96
2018-11-02T05:51:07.080Z,6.92
2018-11-02T05:52:07.184Z,6.86
2018-11-02T05:53:07.260Z,6.85
2018-11-02T05:54:07.408Z,6.83
2018-11-02T05:55:07.298Z,6.82
2018-11-02T05:56:07.401Z,6.78
2018-11-02T05:57:07.538Z,6.73
2018-11-02T05:58:08.018Z,6.67
2018-11-02T05:59:08.255Z,6.63
2018-11-02T06:00:08.659Z,6.59
2018-11-02T06:01:08.300Z,6.58
2018-11-02T06:02:09.054Z,6.56
2018-11-02T06:03:09.586Z,6.53
2018-11-02T06:04:09.633Z,6.51
2018-11-02T06:05:09.713Z,6.49
2018-11-02T06:06:09.587Z,6.49
2018-11-02T06:07:09.897Z,6.46
2018-11-02T06:09:10.626Z,6.45
2018-11-02T06:10:10.496Z,6.42
2018-11-02T06:11:10.998Z,6.37
2018-11-02T06:12:11.341Z,6.34
2018-11-02T06:13:11.779Z,6.33
2018-11-02T06:14:12.215Z,6.32
2018-11-02T06:15:12.766Z,6.32
2018-11-02T06:16:12.627Z,6.31
2018-11-02T06:17:13.032Z,6.29
2018-11-02T06:18:13.365Z,6.28
2018-11-02T06:19:13.813Z,6.27
2018-11-02T06:20:14.149Z,6.24
2018-11-02T06:21:14.615Z,6.25
2018-11-02T06:22:14.979Z,6.25
2018-11-02T06:23:15.329Z,6.25
2018-11-02T06:24:15.795Z,6.22
2018-11-02T06:25:16.510Z,6.20
2018-11-02T06:26:16.412Z,6.17
2018-11-02T06:27:16.771Z,6.15
2018-11-02T06:28:17.217Z,6.11
2018-11-02T06:29:17.600Z,6.09
2018-11-02T06:30:19.109Z,6.07
2018-11-02T06:31:19.430Z,6.03
2018-11-02T06:32:19.634Z,6.01
2018-11-02T06:33:19.948Z,5.99
2018-11-02T06:34:20.264Z,5.96
2018-11-02T06:35:20.786Z,5.96
2018-11-02T06:36:21.000Z,5.98
2018-11-02T06:37:21.188Z,5.98
2018-11-02T06:38:21.620Z,5.97
2018-11-02T06:39:21.525Z,5.97
2018-11-02T06:40:22.147Z,5.95
2018-11-02T06:41:22.271Z,5.92
2018-11-02T06:42:22.270Z,5.90
2018-11-02T06:43:22.526Z,5.86
2018-11-02T06:44:22.720Z,5.83
2018-11-02T06:45:23.011Z,5.79
2018-11-02T06:46:23.309Z,5.76
2018-11-02T06:47:23.519Z,5.74
2018-11-02T06:48:23.821Z,5.72
2018-11-02T06:49:24.161Z,5.70
2018-11-02T06:50:24.341Z,5.69
2018-11-02T06:51:24.561Z,5.69
2018-11-02T06:53:24.578Z,5.70
2018-11-02T06:54:25.024Z,5.66
2018-11-02T06:55:25.512Z,5.66
2018-11-02T06:56:26.123Z,5.67
2018-11-02T06:57:26.076Z,5.68
2018-11-02T06:58:26.615Z,5.70
2018-11-02T06:59:26.824Z,5.71
2018-11-02T07:00:26.970Z,5.72
2018-11-02T07:01:27.240Z,5.73
2018-11-02T07:02:27.666Z,5.73
2018-11-02T07:03:28.236Z,5.74
2018-11-02T07:04:28.349Z,5.72
2018-11-02T07:05:28.404Z,5.72
2018-11-02T07:06:28.752Z,5.74
2018-11-02T07:07:29.318Z,5.77
2018-11-02T07:08:29.571Z,5.80
2018-11-02T07:09:29.956Z,5.83
2018-11-02T07:10:30.367Z,5.87
2018-11-02T07:11:30.772Z,5.91
2018-11-02T07:12:31.215Z,5.95
2018-11-02T07:13:31.612Z,6.00
2018-11-02T07:14:32.036Z,6.05
2018-11-02T07:15:32.429Z,6.10
2018-11-02T07:16:32.773Z,6.16
2018-11-02T07:17:33.552Z,6.22
2018-11-02T07:18:34.063Z,6.29
2018-11-02T07:19:34.273Z,6.35
2018-11-02T07:20:34.381Z,6.41
2018-11-02T07:21:34.277Z,6.47
2018-11-02T07:22:34.821Z,6.53
2018-11-02T07:23:35.019Z,6.60
2018-11-02T07:24:35.028Z,6.65
2018-11-02T07:25:35.139Z,6.71
2018-11-02T07:26:35.338Z,6.77
2018-11-02T07:27:35.356Z,6.82
2018-11-02T07:28:35.874Z,6.88
2018-11-02T07:29:35.992Z,6.94
2018-11-02T07:30:36.146Z,7.00
2018-11-02T07:31:36.176Z,7.05
2018-11-02T07:32:36.524Z,7.12
2018-11-02T07:33:36.414Z,7.18
2018-11-02T07:34:36.588Z,7.24
2018-11-02T07:35:36.764Z,7.30
2018-11-02T07:36:36.562Z,7.36
2018-11-02T07:37:36.961Z,7.42
2018-11-02T07:38:37.465Z,7.48
2018-11-02T07:39:37.577Z,7.54
2018-11-02T07:40:37.837Z,7.60
2018-11-02T07:41:38.036Z,7.66
2018-11-02T07:42:38.222Z,7.72
2018-11-02T07:43:38.741Z,7.78
2018-11-02T07:44:38.944Z,7.84
2018-11-02T07:45:39.055Z,7.90
2018-11-02T07:46:39.148Z,7.96
2018-11-02T07:47:39.199Z,8.02
2018-11-02T07:48:39.469Z,8.08
2018-11-02T07:49:39.871Z,8.15
2018-11-02T07:50:39.654Z,8.22
2018-11-02T07:52:40.088Z,8.28
2018-11-02T07:53:40.195Z,8.38
2018-11-02T07:54:40.508Z,8.46
2018-11-02T07:55:40.822Z,8.54
2018-11-02T07:56:41.313Z,8.62
2018-11-02T07:57:41.775Z,8.70
2018-11-02T07:58:41.817Z,8.79
2018-11-02T07:59:42.149Z,8.87
2018-11-02T08:00:42.509Z,8.96
2018-11-02T08:01:42.998Z,9.04
2018-11-02T08:02:43.149Z,9.12
2018-11-02T08:03:43.341Z,9.19
2018-11-02T08:04:43.755Z,9.27
2018-11-02T08:05:44.133Z,9.34
2018-11-02T08:06:44.579Z,9.42
2018-11-02T08:07:44.448Z,9.50
2018-11-02T08:08:44.800Z,9.58
2018-11-02T08:09:45.180Z,9.66
2018-11-02T08:10:45.515Z,9.75
2018-11-02T08:11:45.942Z,9.83
2018-11-02T08:12:46.360Z,9.92
2018-11-02T08:13:46.759Z,10.01
2018-11-02T08:14:47.146Z,10.11
2018-11-02T08:15:47.446Z,10.21
2018-11-02T08:16:47.842Z,10.30
2018-11-02T08:17:49.220Z,10.41
2018-11-02T08:18:49.348Z,10.50
2018-11-02T08:19:49.314Z,10.61
2018-11-02T08:20:49.929Z,10.72
2018-11-02T08:21:49.733Z,10.83
2018-11-02T08:22:50.357Z,10.95
2018-11-02T08:23:50.164Z,11.07
2018-11-02T08:24:50.467Z,11.20
2018-11-02T08:26:50.766Z,11.35
2018-11-02T08:27:51.092Z,11.61
2018-11-02T08:28:51.173Z,11.87
2018-11-02T08:29:51.379Z,12.14
2018-11-02T08:30:51.249Z,12.42
2018-11-02T08:31:51.766Z,12.73
2018-11-02T08:32:52.018Z,13.02
2018-11-02T08:33:52.315Z,13.31
2018-11-02T08:34:52.575Z,13.56
2018-11-02T08:35:52.663Z,13.74
2018-11-02T08:36:52.770Z,13.86
2018-11-02T08:37:52.933Z,13.92
2018-11-02T08:38:53.080Z,13.89
2018-11-02T08:39:53.229Z,13.73
2018-11-02T08:40:53.428Z,13.49
2018-11-02T08:41:53.612Z,13.26
2018-11-02T08:42:53.867Z,13.06
2018-11-02T08:43:54.214Z,12.89
2018-11-02T08:44:54.275Z,12.74
2018-11-02T08:45:54.200Z,12.61
2018-11-02T08:46:54.515Z,12.49
2018-11-02T08:47:54.908Z,12.39
2018-11-02T08:48:55.643Z,12.31
2018-11-02T08:49:55.478Z,12.24
2018-11-02T08:50:56.041Z,12.18
2018-11-02T08:51:55.942Z,12.13
2018-11-02T08:52:55.909Z,12.09
2018-11-02T08:53:56.372Z,12.06
2018-11-02T08:54:56.760Z,12.03
2018-11-02T08:55:57.155Z,12.00
2018-11-02T08:56:57.452Z,11.95
2018-11-02T08:57:57.961Z,11.93
2018-11-02T08:58:58.225Z,11.91
2018-11-02T08:59:58.514Z,11.88
2018-11-02T09:00:58.843Z,11.85
2018-11-02T09:01:59.271Z,11.85
2018-11-02T09:02:59.302Z,11.83
2018-11-02T09:03:59.680Z,11.79
2018-11-02T09:05:00.205Z,11.76
2018-11-02T09:06:00.538Z,11.71
2018-11-02T09:07:00.887Z,11.66
2018-11-02T09:08:01.154Z,11.59
2018-11-02T09:09:01.998Z,11.55
2018-11-02T09:10:01.679Z,11.52
2018-11-02T09:11:02.329Z,11.49
2018-11-02T09:12:02.468Z,11.48
2018-11-02T09:13:02.651Z,11.48
2018-11-02T09:14:02.830Z,11.48
2018-11-02T09:15:02.850Z,11.46
2018-11-02T09:16:02.820Z,11.44
2018-11-02T09:17:04.329Z,11.41
2018-11-02T09:18:04.637Z,11.39
2018-11-02T09:19:05.091Z,11.37
2018-11-02T09:20:04.975Z,11.35
2018-11-02T09:21:05.580Z,11.33
2018-11-02T09:22:05.994Z,11.32
2018-11-02T09:23:06.297Z,11.32
2018-11-02T09:24:06.735Z,11.33
2018-11-02T09:25:06.631Z,11.35
2018-11-02T09:26:06.728Z,11.36
2018-11-02T09:27:06.848Z,11.36
2018-11-02T09:28:07.015Z,11.38
2018-11-02T09:29:07.142Z,11.40
2018-11-02T09:30:07.584Z,11.42
2018-11-02T09:31:07.534Z,11.42
2018-11-02T09:32:07.744Z,11.43
2018-11-02T09:33:08.010Z,11.46
2018-11-02T09:34:08.125Z,11.47
2018-11-02T09:35:08.336Z,11.47
2018-11-02T09:36:08.455Z,11.45
2018-11-02T09:37:08.291Z,11.46
2018-11-02T09:38:08.908Z,11.50
2018-11-02T09:39:09.139Z,11.54
2018-11-02T09:40:09.191Z,11.56
2018-11-02T09:41:08.951Z,11.58
2018-11-02T09:42:09.848Z,11.62
2018-11-02T09:43:09.647Z,11.64
2018-11-02T09:44:10.066Z,11.65
2018-11-02T09:45:10.654Z,11.66
2018-11-02T09:46:10.896Z,11.65
2018-11-02T09:47:11.332Z,11.63
2018-11-02T09:48:11.725Z,11.62
2018-11-02T09:49:12.299Z,11.62
2018-11-02T09:50:12.175Z,11.63
2018-11-02T09:51:12.713Z,11.64
2018-11-02T09:52:13.161Z,11.65
2018-11-02T09:53:13.430Z,11.66
2018-11-02T09:54:13.719Z,11.68
2018-11-02T09:55:14.228Z,11.69
2018-11-02T09:56:14.194Z,11.70
2018-11-02T09:57:14.755Z,11.71
2018-11-02T09:58:14.701Z,11.71
2018-11-02T09:59:15.082Z,11.73
2018-11-02T10:00:16.077Z,11.74
2018-11-02T10:01:15.905Z,11.77
2018-11-02T10:02:16.458Z,11.80
2018-11-02T10:03:17.013Z,11.83
2018-11-02T10:04:16.866Z,11.87
2018-11-02T10:05:17.322Z,11.93
2018-11-02T10:06:17.716Z,11.98
2018-11-02T10:07:18.688Z,12.02
2018-11-02T10:08:19.521Z,12.04
2018-11-02T10:09:20.028Z,12.08
2018-11-02T10:10:20.452Z,12.13
2018-11-02T10:11:20.386Z,12.22
2018-11-02T10:12:20.968Z,12.28
2018-11-02T10:13:20.960Z,12.32
2018-11-02T10:14:20.843Z,12.34
2018-11-02T10:15:21.219Z,12.35
2018-11-02T10:16:21.401Z,12.34
2018-11-02T10:17:21.616Z,12.35
2018-11-02T10:18:21.721Z,12.37
2018-11-02T10:19:21.939Z,12.41
2018-11-02T10:20:22.036Z,12.45
2018-11-02T10:21:22.214Z,12.46
2018-11-02T10:22:22.256Z,12.48
2018-11-02T10:23:22.266Z,12.51
2018-11-02T10:24:22.302Z,12.53
2018-11-02T10:25:22.393Z,12.53
2018-11-02T10:26:22.389Z,12.54
2018-11-02T10:27:22.677Z,12.54
2018-11-02T10:28:22.991Z,12.55
2018-11-02T10:29:23.333Z,12.56
2018-11-02T10:30:23.349Z,12.57
2018-11-02T10:31:23.549Z,12.60
2018-11-02T10:32:23.809Z,12.59
2018-11-02T10:33:24.166Z,12.60
2018-11-02T10:34:24.319Z,12.63
2018-11-02T10:35:24.254Z,12.67
2018-11-02T10:36:24.674Z,12.72
2018-11-02T10:37:25.144Z,12.79
2018-11-02T10:38:25.542Z,12.84
2018-11-02T10:39:25.786Z,12.97
2018-11-02T10:40:25.715Z,12.97
2018-11-02T10:41:26.004Z,12.96
2018-11-02T10:42:26.373Z,12.97
2018-11-02T10:43:26.250Z,12.97
2018-11-02T10:44:26.737Z,12.97
2018-11-02T10:45:26.664Z,12.98
2018-11-02T10:46:27.088Z,13.03
2018-11-02T10:47:27.544Z,13.05
2018-11-02T10:48:28.105Z,13.19
2018-11-02T10:49:28.106Z,13.21
2018-11-02T10:50:28.429Z,13.25
2018-11-02T10:51:29.160Z,13.28
2018-11-02T10:52:29.047Z,13.31
2018-11-02T10:53:29.363Z,13.35
2018-11-02T10:54:29.801Z,13.38
2018-11-02T10:55:30.220Z,13.41
2018-11-02T10:56:30.700Z,13.44
2018-11-02T10:57:30.815Z,13.47
2018-11-02T10:58:31.108Z,13.50
2018-11-02T10:59:31.451Z,13.52
2018-11-02T11:00:31.836Z,13.55
2018-11-02T11:01:32.291Z,13.54
2018-11-02T11:02:32.702Z,13.51
2018-11-02T11:03:32.808Z,13.49
2018-11-02T11:04:33.813Z,13.47
2018-11-02T11:05:34.549Z,13.44
2018-11-02T11:06:34.848Z,13.31
2018-11-02T11:07:35.263Z,13.30
2018-11-02T11:08:35.642Z,13.29
2018-11-02T11:09:36.130Z,13.25
2018-11-02T11:10:36.520Z,13.19
2018-11-02T11:11:36.597Z,13.19
2018-11-02T11:12:37.087Z,13.19
2018-11-02T11:13:37.346Z,13.18
2018-11-02T11:14:37.316Z,13.18
2018-11-02T11:15:37.466Z,13.17
2018-11-02T11:16:37.572Z,13.17
2018-11-02T11:17:37.761Z,13.17
2018-11-02T11:18:37.887Z,13.19
2018-11-02T11:19:37.988Z,13.19
2018-11-02T11:20:38.226Z,13.20
2018-11-02T11:21:38.411Z,13.21
2018-11-02T11:22:38.607Z,13.23
2018-11-02T11:23:38.789Z,13.27
2018-11-02T11:24:38.953Z,13.26
2018-11-02T11:25:39.025Z,13.30
2018-11-02T11:26:39.081Z,13.34
2018-11-02T11:27:39.126Z,13.33
2018-11-02T11:28:39.318Z,13.33
2018-11-02T11:29:39.257Z,13.38
2018-11-02T11:30:39.654Z,13.40
2018-11-02T11:31:39.970Z,13.41
2018-11-02T11:32:40.436Z,13.42
2018-11-02T11:33:40.485Z,13.45
2018-11-02T11:34:41.106Z,13.45
2018-11-02T11:35:40.910Z,13.40
2018-11-02T11:36:41.388Z,13.42
2018-11-02T11:37:41.748Z,13.42
2018-11-02T11:38:41.842Z,13.42
2018-11-02T11:39:42.582Z,13.44
2018-11-02T11:40:42.386Z,13.44
2018-11-02T11:41:42.794Z,13.44
2018-11-02T11:42:43.207Z,13.47
2018-11-02T11:43:43.729Z,13.48
2018-11-02T11:44:43.619Z,13.55
2018-11-02T11:45:43.937Z,13.61
2018-11-02T11:46:44.256Z,13.63
2018-11-02T11:47:44.666Z,13.64
2018-11-02T11:48:45.113Z,13.68
2018-11-02T11:49:45.396Z,13.72
2018-11-02T11:50:45.406Z,13.73
2018-11-02T11:51:45.722Z,13.83
2018-11-02T11:52:46.039Z,13.84
2018-11-02T11:53:46.649Z,13.85
2018-11-02T11:54:46.971Z,13.93
2018-11-02T11:55:47.629Z,14.01
2018-11-02T11:56:47.478Z,14.12
2018-11-02T11:57:47.794Z,14.26
2018-11-02T11:58:48.776Z,14.28
2018-11-02T11:59:49.119Z,14.40
2018-11-02T12:00:49.944Z,14.47
2018-11-02T12:01:50.173Z,14.54
2018-11-02T12:02:50.672Z,14.65
2018-11-02T12:03:50.785Z,14.77
2018-11-02T12:04:51.073Z,14.75
2018-11-02T12:05:51.206Z,14.78
2018-11-02T12:06:51.533Z,14.83
2018-11-02T12:07:51.731Z,15.15
2018-11-02T12:08:51.942Z,15.33
2018-11-02T12:09:52.012Z,15.37
2018-11-02T12:10:51.928Z,15.73
2018-11-02T12:11:52.366Z,15.77
2018-11-02T12:12:52.563Z,16.14
2018-11-02T12:13:52.867Z,16.20
2018-11-02T12:14:53.000Z,16.31
2018-11-02T12:15:53.160Z,16.47
2018-11-02T12:16:53.242Z,17.20
2018-11-02T12:17:53.508Z,17.25
2018-11-02T12:18:53.707Z,17.36
2018-11-02T12:19:53.893Z,17.57
2018-11-02T12:20:54.183Z,18.02
2018-11-02T12:21:54.241Z,18.11
2018-11-02T12:22:54.195Z,18.25
2018-11-02T12:23:54.258Z,18.93
2018-11-02T12:24:54.593Z,18.49
2018-11-02T12:25:54.895Z,18.69
2018-11-02T12:26:55.267Z,18.84
2018-11-02T12:27:55.741Z,19.36
2018-11-02T12:28:56.159Z,19.57
2018-11-02T12:29:56.413Z,19.76
2018-11-02T12:30:56.831Z,19.97
2018-11-02T12:31:57.153Z,20.19
2018-11-02T12:32:57.599Z,20.45
2018-11-02T12:33:57.898Z,20.62
2018-11-02T12:34:58.283Z,20.78
2018-11-02T12:35:58.700Z,20.94
2018-11-02T12:36:59.084Z,20.95
2018-11-02T12:38:59.625Z,21.13
2018-11-02T12:39:59.441Z,21.16
2018-11-02T12:40:59.843Z,21.34
2018-11-02T12:42:00.164Z,21.34
2018-11-02T12:43:00.495Z,21.47
2018-11-02T12:44:01.113Z,21.44
2018-11-02T12:45:00.953Z,21.05
2018-11-02T12:46:00.917Z,21.38
2018-11-02T12:47:01.714Z,21.21
2018-11-02T12:48:01.753Z,20.58
2018-11-02T12:49:02.407Z,20.22
2018-11-02T12:50:02.396Z,20.15
2018-11-02T12:51:03.594Z,20.55
2018-11-02T12:52:03.411Z,20.78
2018-11-02T12:53:03.916Z,20.80
2018-11-02T12:54:04.012Z,20.92
2018-11-02T12:55:03.988Z,21.11
2018-11-02T12:56:04.333Z,21.36
2018-11-02T12:57:04.542Z,21.53
2018-11-02T12:58:04.765Z,21.74
2018-11-02T12:59:04.966Z,21.84
2018-11-02T13:00:05.590Z,21.96
2018-11-02T13:01:05.696Z,22.11
2018-11-02T13:03:06.131Z,22.17
2018-11-02T13:04:06.740Z,20.78
2018-11-02T13:05:06.439Z,20.38
2018-11-02T13:06:06.961Z,20.15
2018-11-02T13:07:06.565Z,20.61
2018-11-02T13:08:06.777Z,20.70
2018-11-02T13:09:06.865Z,21.12
2018-11-02T13:10:07.176Z,21.13
2018-11-02T13:11:07.151Z,21.08
2018-11-02T13:13:07.175Z,21.16
2018-11-02T13:14:07.490Z,21.37
2018-11-02T13:16:07.731Z,20.90
2018-11-02T13:17:07.550Z,21.68
2018-11-02T13:18:08.332Z,21.87
2018-11-02T13:19:08.540Z,22.00
2018-11-02T13:20:08.407Z,22.05
2018-11-02T13:21:08.913Z,22.20
2018-11-02T13:22:09.047Z,22.27
2018-11-02T13:23:09.114Z,22.22
2018-11-02T13:24:09.162Z,22.27